createdAt,value
2018-02-20T00:02:09.477Z,56.77
2018-02-20T00:04:38.326Z,50.70
2018-02-20T00:13:10.636Z,54.17
2018-02-20T00:15:40.259Z,55.90
2018-02-20T00:18:09.102Z,49.60
2018-02-20T00:20:38.838Z,52.37
2018-02-20T00:23:07.674Z,51.20
2018-02-20T00:25:36.515Z,50.30
2018-02-20T00:28:05.357Z,48.90
2018-02-20T00:30:34.197Z,51.43
2018-02-20T00:33:03.600Z,47.77
2018-02-20T00:35:32.429Z,50.60
2018-02-20T00:38:01.295Z,46.87
2018-02-20T00:40:30.149Z,47.47
2018-02-20T00:42:58.975Z,47.50
2018-02-20T00:45:27.852Z,46.40
2018-02-20T00:47:56.701Z,49.20
2018-02-20T00:50:26.311Z,45.50
2018-02-20T00:52:55.918Z,45.30
2018-02-20T00:55:25.515Z,42.67
2018-02-20T00:57:55.158Z,41.90
2018-02-20T01:00:24.007Z,43.67
2018-02-20T01:02:52.837Z,43.90
2018-02-20T01:05:21.676Z,43.90
2018-02-20T01:07:50.516Z,42.67
2018-02-20T01:10:19.365Z,44.90
2018-02-20T01:12:48.195Z,43.67
2018-02-20T01:15:17.594Z,44.03
2018-02-20T01:17:46.450Z,45.47
2018-02-20T01:20:16.059Z,43.70
2018-02-20T01:22:45.678Z,44.00
2018-02-20T01:25:15.282Z,44.60
2018-02-20T01:27:45.654Z,46.97
2018-02-20T01:30:15.468Z,43.63
2018-02-20T01:32:44.317Z,47.50
2018-02-20T01:35:13.178Z,45.00
2018-02-20T01:37:43.535Z,47.27
2018-02-20T01:40:13.142Z,44.40
2018-02-20T01:42:42.765Z,44.80
2018-02-20T01:45:11.612Z,45.37
2018-02-20T01:47:40.459Z,43.33
2018-02-20T01:50:09.330Z,41.57
2018-02-20T01:52:38.167Z,42.87
2018-02-20T01:55:07.009Z,39.13
2018-02-20T01:57:35.851Z,39.90
2018-02-20T02:00:04.762Z,39.87
2018-02-20T02:02:34.374Z,42.33
2018-02-20T02:05:04.003Z,43.63
2018-02-20T02:07:32.818Z,43.97
2018-02-20T02:10:01.659Z,44.77
2018-02-20T02:12:31.263Z,45.00
2018-02-20T02:15:00.871Z,41.50
2018-02-20T02:17:30.922Z,42.30
2018-02-20T02:19:59.772Z,42.27
2018-02-20T02:22:28.619Z,42.77
2018-02-20T02:24:57.446Z,44.90
2018-02-20T02:27:26.290Z,42.10
2018-02-20T02:29:55.128Z,40.13
2018-02-20T02:32:23.966Z,38.47
2018-02-20T02:34:52.831Z,40.00
2018-02-20T02:37:21.681Z,40.70
2018-02-20T02:39:51.274Z,41.27
2018-02-20T02:42:20.451Z,37.73
2018-02-20T02:44:49.287Z,40.30
2018-02-20T02:47:18.130Z,41.40
2018-02-20T02:49:46.974Z,38.23
2018-02-20T02:52:15.824Z,39.23
2018-02-20T02:54:45.428Z,38.33
2018-02-20T02:57:15.072Z,39.80
2018-02-20T02:59:44.687Z,37.87
2018-02-20T03:02:14.431Z,39.20
2018-02-20T03:04:43.264Z,36.70
2018-02-20T03:07:12.147Z,38.20
2018-02-20T03:09:40.962Z,36.30
2018-02-20T03:12:09.810Z,37.47
2018-02-20T03:14:38.630Z,38.60
2018-02-20T03:17:07.508Z,38.43
2018-02-20T03:19:36.403Z,38.83
2018-02-20T03:22:05.239Z,39.30
2018-02-20T03:24:34.846Z,37.53
2018-02-20T03:27:04.461Z,40.00
2018-02-20T03:29:33.550Z,38.23
2018-02-20T03:32:03.166Z,38.60
2018-02-20T03:34:32.763Z,38.97
2018-02-20T03:37:02.374Z,38.50
2018-02-20T03:39:31.977Z,39.13
2018-02-20T03:42:01.615Z,35.40
2018-02-20T03:44:30.502Z,39.37
2018-02-20T03:46:59.330Z,38.67
2018-02-20T03:49:28.191Z,40.73
2018-02-20T03:51:57.019Z,39.70
2018-02-20T03:54:25.853Z,37.30
2018-02-20T03:56:54.717Z,38.87
2018-02-20T03:59:24.364Z,37.77
2018-02-20T04:01:53.196Z,40.03
2018-02-20T04:04:22.803Z,39.57
2018-02-20T04:06:51.642Z,37.23
2018-02-20T04:09:20.516Z,39.23
2018-02-20T04:11:50.111Z,39.47
2018-02-20T04:14:19.723Z,38.33
2018-02-20T04:16:49.350Z,36.90
2018-02-20T04:19:18.527Z,37.50
2018-02-20T04:21:47.390Z,36.13
2018-02-20T04:24:16.991Z,37.47
2018-02-20T04:26:46.618Z,36.77
2018-02-20T04:29:15.460Z,35.23
2018-02-20T04:31:44.302Z,34.20
2018-02-20T04:34:13.141Z,37.37
2018-02-20T04:36:41.986Z,35.40
2018-02-20T04:39:10.823Z,37.27
2018-02-20T04:41:39.671Z,38.37
2018-02-20T04:44:08.506Z,37.10
2018-02-20T04:46:37.503Z,35.40
2018-02-20T04:49:07.099Z,37.90
2018-02-20T04:51:35.956Z,35.27
2018-02-20T04:54:04.782Z,37.77
2018-02-20T04:56:33.614Z,36.87
2018-02-20T04:59:02.454Z,36.27
2018-02-20T05:01:31.537Z,36.53
2018-02-20T05:04:00.340Z,37.37
2018-02-20T05:06:29.191Z,35.80
2018-02-20T05:08:58.039Z,37.20
2018-02-20T05:11:27.666Z,36.30
2018-02-20T05:13:56.515Z,35.83
2018-02-20T05:16:25.347Z,38.80
2018-02-20T05:18:54.201Z,39.47
2018-02-20T05:21:23.079Z,38.77
2018-02-20T05:23:51.978Z,37.93
2018-02-20T05:26:21.906Z,37.00
2018-02-20T05:28:50.766Z,37.60
2018-02-20T05:31:19.606Z,39.40
2018-02-20T05:33:48.454Z,35.80
2018-02-20T05:36:17.288Z,38.73
2018-02-20T05:38:46.129Z,38.03
2018-02-20T05:41:14.998Z,37.73
2018-02-20T05:43:44.625Z,36.90
2018-02-20T05:46:13.462Z,37.80
2018-02-20T05:48:42.307Z,38.03
2018-02-20T05:51:11.147Z,39.30
2018-02-20T05:53:39.978Z,38.90
2018-02-20T05:56:08.865Z,37.80
2018-02-20T05:58:37.708Z,38.47
2018-02-20T06:01:06.562Z,41.03
2018-02-20T06:03:35.392Z,40.17
2018-02-20T06:06:04.238Z,41.50
2018-02-20T06:08:33.100Z,41.77
2018-02-20T06:11:01.958Z,41.90
2018-02-20T06:13:30.793Z,42.90
2018-02-20T06:15:59.635Z,42.13
2018-02-20T06:18:28.475Z,41.40
2018-02-20T06:20:57.367Z,42.20
2018-02-20T06:23:26.226Z,43.97
2018-02-20T06:25:55.116Z,56.37
2018-02-20T06:28:23.950Z,55.67
2018-02-20T06:30:52.806Z,45.00
2018-02-20T06:33:21.646Z,42.87
2018-02-20T06:35:51.282Z,43.30
2018-02-20T06:38:20.144Z,40.40
2018-02-20T06:40:49.772Z,41.50
2018-02-20T06:43:19.386Z,41.23
2018-02-20T06:45:48.232Z,40.00
2018-02-20T06:48:17.081Z,41.73
2018-02-20T06:50:45.975Z,42.13
2018-02-20T06:53:15.563Z,43.00
2018-02-20T06:55:44.405Z,46.50
2018-02-20T06:58:13.257Z,48.70
2018-02-20T07:00:42.446Z,51.07
2018-02-20T07:03:11.302Z,45.50
2018-02-20T07:05:40.926Z,46.17
2018-02-20T07:08:09.779Z,49.33
2018-02-20T07:10:38.822Z,46.27
2018-02-20T07:13:07.658Z,49.70
2018-02-20T07:15:36.502Z,47.73
2018-02-20T07:18:05.343Z,48.53
2018-02-20T07:20:35.691Z,45.27
2018-02-20T07:23:04.536Z,45.97
2018-02-20T07:25:33.385Z,45.20
2018-02-20T07:28:03.002Z,44.80
2018-02-20T07:30:31.866Z,48.67
2018-02-20T07:33:00.721Z,46.07
2018-02-20T07:35:29.561Z,43.80
2018-02-20T07:37:59.170Z,45.43
2018-02-20T07:40:28.777Z,44.40
2018-02-20T07:42:58.396Z,42.13
2018-02-20T07:45:27.999Z,44.70
2018-02-20T07:47:58.556Z,42.70
2018-02-20T07:50:27.412Z,46.97
2018-02-20T07:52:57.017Z,47.63
2018-02-20T07:55:26.627Z,46.77
2018-02-20T07:57:56.237Z,48.83
2018-02-20T08:00:25.865Z,49.50
2018-02-20T08:02:54.703Z,48.83
2018-02-20T08:05:23.553Z,46.43
2018-02-20T08:07:52.384Z,41.30
2018-02-20T08:10:21.221Z,43.70
2018-02-20T08:12:50.074Z,41.70
2018-02-20T08:15:19.690Z,39.37
2018-02-20T08:17:49.314Z,39.97
2018-02-20T08:20:18.146Z,37.90
2018-02-20T08:22:47.007Z,39.20
2018-02-20T08:25:15.872Z,36.37
2018-02-20T08:27:45.498Z,36.87
2018-02-20T08:30:15.106Z,36.67
2018-02-20T08:32:43.949Z,34.63
2018-02-20T08:35:12.783Z,34.87
2018-02-20T08:37:41.622Z,36.47
2018-02-20T08:40:10.470Z,35.43
2018-02-20T08:42:39.313Z,34.60
2018-02-20T08:45:08.937Z,32.83
2018-02-20T08:47:38.553Z,31.93
2018-02-20T08:50:07.414Z,33.10
2018-02-20T08:52:36.255Z,32.10
2018-02-20T08:55:05.103Z,34.40
2018-02-20T08:57:34.720Z,32.87
2018-02-20T09:00:04.330Z,32.37
2018-02-20T09:02:33.191Z,33.80
2018-02-20T09:05:02.112Z,30.73
2018-02-20T09:07:31.151Z,34.73
2018-02-20T09:10:00.020Z,32.30
2018-02-20T09:12:28.845Z,31.73
2018-02-20T09:14:57.692Z,30.93
2018-02-20T09:17:28.090Z,32.97
2018-02-20T09:19:57.780Z,31.13
2018-02-20T09:22:26.619Z,31.97
2018-02-20T09:24:55.458Z,31.60
2018-02-20T09:27:25.059Z,31.47
2018-02-20T09:29:54.702Z,32.87
2018-02-20T09:32:23.549Z,32.20
2018-02-20T09:34:53.146Z,33.13
2018-02-20T09:37:22.002Z,32.03
2018-02-20T09:39:50.832Z,31.53
2018-02-20T09:42:20.450Z,30.37
2018-02-20T09:44:50.069Z,31.60
2018-02-20T09:47:18.946Z,32.87
2018-02-20T09:49:48.897Z,34.03
2018-02-20T09:52:17.723Z,32.10
2018-02-20T09:54:46.596Z,32.83
2018-02-20T09:57:15.444Z,32.30
2018-02-20T09:59:44.270Z,32.47
2018-02-20T10:02:13.150Z,33.83
2018-02-20T10:04:41.991Z,34.60
2018-02-20T10:07:11.630Z,33.30
2018-02-20T10:09:40.487Z,34.60
2018-02-20T10:12:10.127Z,32.23
2018-02-20T10:14:38.991Z,34.30
2018-02-20T10:17:08.636Z,33.23
2018-02-20T10:19:37.525Z,33.47
2018-02-20T10:22:06.374Z,32.60
2018-02-20T10:24:35.225Z,32.40
2018-02-20T10:27:04.886Z,32.07
2018-02-20T10:29:34.496Z,32.70
2018-02-20T10:32:04.103Z,32.83
2018-02-20T10:34:33.731Z,32.03
2018-02-20T10:37:02.579Z,32.03
2018-02-20T10:39:31.829Z,33.30
2018-02-20T10:42:00.704Z,32.10
2018-02-20T10:44:30.336Z,33.03
2018-02-20T10:46:59.190Z,32.57
2018-02-20T10:49:28.686Z,34.63
2018-02-20T10:51:58.293Z,32.30
2018-02-20T10:54:27.159Z,35.30
2018-02-20T10:56:56.002Z,34.53
2018-02-20T10:59:24.859Z,33.00
2018-02-20T11:01:54.534Z,37.17
2018-02-20T11:04:23.355Z,34.53
2018-02-20T11:06:52.977Z,35.33
2018-02-20T11:09:22.571Z,33.27
2018-02-20T11:11:51.649Z,33.87
2018-02-20T11:14:20.503Z,33.63
2018-02-20T11:16:51.895Z,32.00
2018-02-20T11:19:18.226Z,35.13
2018-02-20T11:21:48.456Z,34.27
2018-02-20T11:24:17.842Z,35.67
2018-02-20T11:26:46.711Z,33.40
2018-02-20T11:29:16.838Z,34.50
2018-02-20T11:31:46.470Z,35.17
2018-02-20T11:34:15.314Z,34.30
2018-02-20T11:36:44.942Z,34.63
2018-02-20T11:39:14.561Z,34.83
2018-02-20T11:41:43.412Z,35.30
2018-02-20T11:44:12.770Z,35.00
2018-02-20T11:46:41.623Z,36.60
2018-02-20T11:49:11.245Z,35.47
2018-02-20T11:51:40.124Z,35.03
2018-02-20T11:54:09.745Z,34.60
2018-02-20T11:56:39.371Z,32.83
2018-02-20T11:59:08.210Z,33.03
2018-02-20T12:01:37.067Z,33.70
2018-02-20T12:04:05.921Z,33.40
2018-02-20T12:06:34.767Z,34.27
2018-02-20T12:09:03.623Z,34.97
2018-02-20T12:11:32.480Z,35.43
2018-02-20T12:14:02.196Z,35.40
2018-02-20T12:16:30.962Z,33.83
2018-02-20T12:19:00.581Z,34.47
2018-02-20T12:21:30.192Z,34.77
2018-02-20T12:23:59.830Z,33.60
2018-02-20T12:26:29.444Z,33.47
2018-02-20T12:28:59.058Z,31.17
2018-02-20T12:31:28.698Z,30.73
2018-02-20T12:33:57.586Z,30.23
2018-02-20T12:36:26.446Z,31.13
2018-02-20T12:38:55.311Z,31.47
2018-02-20T12:41:25.049Z,33.23
2018-02-20T12:43:53.879Z,31.73
2018-02-20T12:46:22.737Z,32.37
2018-02-20T12:48:51.578Z,33.17
2018-02-20T12:51:20.434Z,33.40
2018-02-20T12:53:49.258Z,33.20
2018-02-20T12:56:18.110Z,35.77
2018-02-20T12:58:46.955Z,36.73
2018-02-20T13:01:16.568Z,35.87
2018-02-20T13:03:46.175Z,35.60
2018-02-20T13:06:15.812Z,33.67
2018-02-20T13:08:44.669Z,35.50
2018-02-20T13:11:14.268Z,33.17
2018-02-20T13:13:43.891Z,34.77
2018-02-20T13:16:13.523Z,33.87
2018-02-20T13:18:42.381Z,36.03
2018-02-20T13:21:11.989Z,33.60
2018-02-20T13:23:41.599Z,34.63
2018-02-20T13:26:11.219Z,32.63
2018-02-20T13:28:40.894Z,35.30
2018-02-20T13:31:09.742Z,34.80
2018-02-20T13:33:38.597Z,34.40
2018-02-20T13:36:07.466Z,33.97
2018-02-20T13:38:36.310Z,33.87
2018-02-20T13:41:05.943Z,35.67
2018-02-20T13:43:34.776Z,34.63
2018-02-20T13:46:04.844Z,32.60
2018-02-20T13:48:33.702Z,32.60
2018-02-20T13:51:03.302Z,32.60
2018-02-20T13:53:32.918Z,31.50
2018-02-20T13:56:02.552Z,31.33
2018-02-20T13:58:31.397Z,28.50
2018-02-20T14:01:01.007Z,32.37
2018-02-20T14:03:29.854Z,29.70
2018-02-20T14:05:58.714Z,31.33
2018-02-20T14:08:27.564Z,35.90
2018-02-20T14:10:56.403Z,35.60
2018-02-20T14:13:25.671Z,37.67
2018-02-20T14:15:55.276Z,39.33
2018-02-20T14:18:24.573Z,35.80
2018-02-20T14:20:54.411Z,34.53
2018-02-20T14:23:24.042Z,36.83
2018-02-20T14:25:52.889Z,34.80
2018-02-20T14:28:21.726Z,35.23
2018-02-20T14:30:50.566Z,31.60
2018-02-20T14:33:19.403Z,34.37
2018-02-20T14:35:49.750Z,36.53
2018-02-20T14:38:19.385Z,36.20
2018-02-20T14:40:48.634Z,42.90
2018-02-20T14:43:17.497Z,38.70
2018-02-20T14:45:46.362Z,34.07
2018-02-20T14:48:15.993Z,32.83
2018-02-20T14:50:44.850Z,32.03
2018-02-20T14:53:14.450Z,35.07
2018-02-20T14:55:44.082Z,33.20
2018-02-20T14:58:12.939Z,32.70
2018-02-20T15:00:42.686Z,32.57
2018-02-20T15:03:11.522Z,31.60
2018-02-20T15:05:40.367Z,31.10
2018-02-20T15:08:09.222Z,28.80
2018-02-20T15:10:38.910Z,29.37
2018-02-20T15:13:07.715Z,27.83
2018-02-20T15:15:37.359Z,27.13
2018-02-20T15:18:06.468Z,27.67
2018-02-20T15:20:35.303Z,28.70
2018-02-20T15:23:04.986Z,29.63
2018-02-20T15:25:33.814Z,29.00
2018-02-20T15:28:02.649Z,29.60
2018-02-20T15:30:31.504Z,29.57
2018-02-20T15:33:01.001Z,30.40
2018-02-20T15:35:30.623Z,31.60
2018-02-20T15:37:59.486Z,33.87
2018-02-20T15:40:28.347Z,34.20
2018-02-20T15:42:57.975Z,36.20
2018-02-20T15:45:26.816Z,36.20
2018-02-20T15:47:55.678Z,34.87
2018-02-20T15:50:24.518Z,36.57
2018-02-20T15:52:54.971Z,34.53
2018-02-20T15:55:23.828Z,37.57
2018-02-20T15:57:53.477Z,40.47
2018-02-20T16:00:23.076Z,33.97
2018-02-20T16:02:52.673Z,33.87
2018-02-20T16:05:21.515Z,33.50
2018-02-20T16:07:50.373Z,31.53
2018-02-20T16:10:19.211Z,32.67
2018-02-20T16:12:48.066Z,32.73
2018-02-20T16:15:16.913Z,31.77
2018-02-20T16:17:46.842Z,32.83
2018-02-20T16:20:15.731Z,34.60
2018-02-20T16:22:44.547Z,33.13
2018-02-20T16:25:13.475Z,32.87
2018-02-20T16:27:42.311Z,32.97
2018-02-20T16:30:11.945Z,35.03
2018-02-20T16:32:40.786Z,32.00
2018-02-20T16:35:10.049Z,35.80
2018-02-20T16:37:39.409Z,33.07
2018-02-20T16:40:09.023Z,34.40
2018-02-20T16:42:38.615Z,32.07
2018-02-20T16:45:08.264Z,32.77
2018-02-20T16:47:37.955Z,31.47
2018-02-20T16:50:06.825Z,34.30
2018-02-20T16:52:36.443Z,37.03
2018-02-20T16:55:06.066Z,32.90
2018-02-20T16:57:34.924Z,32.80
2018-02-20T17:00:04.098Z,33.70
2018-02-20T17:02:32.955Z,32.40
2018-02-20T17:05:01.795Z,31.00
2018-02-20T17:07:31.426Z,33.83
2018-02-20T17:10:00.313Z,30.87
2018-02-20T17:12:29.591Z,32.53
2018-02-20T17:14:58.424Z,30.57
2018-02-20T17:17:27.269Z,33.03
2018-02-20T17:19:56.883Z,33.17
2018-02-20T17:22:26.495Z,34.40
2018-02-20T17:24:56.117Z,32.57
2018-02-20T17:27:25.740Z,32.97
2018-02-20T17:29:55.339Z,35.20
2018-02-20T17:32:25.075Z,33.50
2018-02-20T17:34:53.921Z,45.30
2018-02-20T17:37:22.775Z,41.77
2018-02-20T17:39:51.631Z,38.73
2018-02-20T17:42:21.272Z,37.80
2018-02-20T17:44:50.148Z,36.23
2018-02-20T17:47:19.046Z,37.47
2018-02-20T17:49:48.221Z,40.13
2018-02-20T17:52:18.041Z,37.10
2018-02-20T17:54:46.894Z,41.37
2018-02-20T17:57:16.537Z,39.57
2018-02-20T17:59:45.404Z,43.17
2018-02-20T18:02:15.039Z,39.33
2018-02-20T18:04:44.115Z,41.47
2018-02-20T18:07:13.203Z,42.83
2018-02-20T18:09:42.836Z,41.00
2018-02-20T18:12:11.681Z,42.20
2018-02-20T18:14:40.526Z,41.40
2018-02-20T18:17:09.403Z,41.50
2018-02-20T18:19:38.989Z,41.03
2018-02-20T18:22:08.614Z,41.83
2018-02-20T18:24:37.484Z,46.50
2018-02-20T18:27:07.074Z,50.70
2018-02-20T18:29:36.980Z,53.40
2018-02-20T18:32:06.556Z,53.00
2018-02-20T18:34:35.438Z,45.33
2018-02-20T18:37:05.073Z,43.67
2018-02-20T18:39:34.705Z,42.13
2018-02-20T18:42:03.957Z,44.57
2018-02-20T18:44:32.807Z,43.27
2018-02-20T18:47:01.673Z,45.10
2018-02-20T18:49:30.523Z,44.13
2018-02-20T18:51:59.421Z,42.87
2018-02-20T18:54:29.031Z,44.27
2018-02-20T18:56:58.731Z,46.23
2018-02-20T18:59:27.549Z,48.47
2018-02-20T19:01:56.586Z,45.60
2018-02-20T19:04:25.460Z,47.80
2018-02-20T19:06:54.334Z,47.67
2018-02-20T19:09:23.966Z,47.23
2018-02-20T19:11:52.805Z,48.57
2018-02-20T19:14:22.407Z,51.30
2018-02-20T19:16:52.049Z,48.60
2018-02-20T19:19:20.898Z,49.10
2018-02-20T19:21:49.811Z,47.80
2018-02-20T19:24:18.614Z,53.27
2018-02-20T19:26:47.494Z,58.53
2018-02-20T19:29:16.371Z,99.00
2018-02-20T19:31:45.267Z,140.07
2018-02-20T19:34:14.129Z,71.20
2018-02-20T19:36:44.794Z,68.57
2018-02-20T19:39:13.744Z,49.73
2018-02-20T19:41:42.646Z,48.97
2018-02-20T19:44:12.829Z,45.40
2018-02-20T19:46:41.692Z,47.63
2018-02-20T19:49:10.542Z,46.50
2018-02-20T19:51:40.159Z,46.63
2018-02-20T19:54:09.038Z,46.57
2018-02-20T19:56:38.646Z,48.37
2018-02-20T19:59:07.634Z,47.30
2018-02-20T20:01:37.282Z,47.03
2018-02-20T20:04:06.159Z,48.73
2018-02-20T20:06:35.782Z,44.87
2018-02-20T20:09:04.614Z,48.00
2018-02-20T20:11:33.480Z,47.00
2018-02-20T20:14:02.348Z,48.60
2018-02-20T20:16:31.971Z,49.33
2018-02-20T20:19:00.840Z,50.30
2018-02-20T20:21:29.719Z,50.17
2018-02-20T20:23:59.345Z,50.43
2018-02-20T20:26:28.236Z,50.60
2018-02-20T20:28:57.092Z,50.70
2018-02-20T20:31:26.845Z,55.30
2018-02-20T20:33:56.452Z,49.80
2018-02-20T20:36:25.304Z,50.77
2018-02-20T20:38:54.927Z,50.20
2018-02-20T20:41:24.828Z,51.53
2018-02-20T20:43:54.440Z,51.00
2018-02-20T20:46:23.290Z,50.17
2018-02-20T20:48:52.156Z,53.53
2018-02-20T20:51:21.035Z,48.63
2018-02-20T20:53:49.877Z,49.67
2018-02-20T20:56:19.486Z,47.10
2018-02-20T20:58:49.127Z,48.97
2018-02-20T21:01:17.990Z,48.20
2018-02-20T21:03:47.619Z,43.93
2018-02-20T21:06:16.458Z,57.10
2018-02-20T21:08:45.331Z,51.73
2018-02-20T21:11:14.183Z,48.67
2018-02-20T21:13:43.182Z,50.13
2018-02-20T21:16:12.023Z,47.00
2018-02-20T21:18:40.864Z,46.03
2018-02-20T21:21:09.715Z,45.17
2018-02-20T21:23:39.372Z,46.83
2018-02-20T21:26:10.710Z,44.10
2018-02-20T21:28:39.548Z,45.87
2018-02-20T21:31:08.391Z,47.10
2018-02-20T21:33:37.243Z,48.40
2018-02-20T21:36:06.883Z,47.00
2018-02-20T21:38:35.726Z,49.10
2018-02-20T21:41:05.343Z,50.40
2018-02-20T21:43:34.985Z,45.60
2018-02-20T21:46:03.833Z,47.67
2018-02-20T21:48:33.487Z,49.30
2018-02-20T21:51:02.362Z,48.30
2018-02-20T21:53:31.217Z,45.97
2018-02-20T21:56:00.847Z,49.67
2018-02-20T21:58:30.470Z,48.60
2018-02-20T22:01:00.080Z,48.67
2018-02-20T22:03:28.938Z,48.20
2018-02-20T22:05:57.776Z,47.23
2018-02-20T22:08:26.615Z,49.80
2018-02-20T22:10:56.220Z,48.50
2018-02-20T22:13:25.873Z,49.13
2018-02-20T22:15:54.705Z,50.00
2018-02-20T22:18:23.552Z,50.87
2018-02-20T22:20:52.404Z,52.03
2018-02-20T22:23:22.002Z,49.40
2018-02-20T22:25:51.622Z,47.17
2018-02-20T22:28:20.482Z,51.07
2018-02-20T22:30:49.336Z,49.03
2018-02-20T22:33:18.993Z,50.00
2018-02-20T22:35:47.827Z,46.60
2018-02-20T22:38:16.742Z,49.47
2018-02-20T22:40:45.594Z,50.63
2018-02-20T22:43:14.438Z,51.80
2018-02-20T22:45:44.082Z,47.63
2018-02-20T22:48:13.083Z,51.40
2018-02-20T22:50:41.923Z,49.77
2018-02-20T22:53:11.544Z,51.80
2018-02-20T22:55:42.882Z,50.83
2018-02-20T22:58:12.500Z,51.40
2018-02-20T23:00:42.134Z,50.00
2018-02-20T23:03:11.514Z,48.93
2018-02-20T23:05:41.142Z,50.20
2018-02-20T23:08:10.297Z,50.40
2018-02-20T23:10:39.973Z,54.00
2018-02-20T23:13:08.834Z,50.63
2018-02-20T23:15:37.666Z,48.67
2018-02-20T23:18:06.495Z,48.23
2018-02-20T23:20:36.103Z,50.87
2018-02-20T23:23:04.946Z,43.70
2018-02-20T23:25:33.791Z,47.00
2018-02-20T23:28:02.638Z,45.63
2018-02-20T23:30:31.506Z,43.80
2018-02-20T23:33:01.121Z,47.63
2018-02-20T23:35:30.759Z,47.77
2018-02-20T23:37:59.631Z,45.77
2018-02-20T23:40:28.471Z,47.03
2018-02-20T23:42:57.314Z,47.43
2018-02-20T23:45:26.155Z,47.23
2018-02-20T23:47:55.001Z,46.70
2018-02-20T23:50:23.844Z,47.67
2018-02-20T23:52:53.536Z,48.07
2018-02-20T23:55:22.368Z,46.80
2018-02-20T23:57:51.984Z,47.70
